sensor_id;sensor_type;location;lat;lon;timestamp;P1;durP1;ratioP1;P2;durP2;ratioP2
66012;SDS011;52783;50.502;8.190;2024-01-30T00:02:15;26.70;;;12.20;;
66012;SDS011;52783;50.502;8.190;2024-01-30T00:04:41;20.17;;;12.55;;
66012;SDS011;52783;50.502;8.190;2024-01-30T00:07:06;22.55;;;12.60;;
66012;SDS011;52783;50.502;8.190;2024-01-30T00:09:32;21.20;;;13.38;;
66012;SDS011;52783;50.502;8.190;2024-01-30T00:11:58;23.52;;;13.88;;
66012;SDS011;52783;50.502;8.190;2024-01-30T00:14:23;23.27;;;12.57;;
66012;SDS011;52783;50.502;8.190;2024-01-30T00:16:50;23.85;;;12.73;;
66012;SDS011;52783;50.502;8.190;2024-01-30T00:19:15;24.13;;;12.55;;
66012;SDS011;52783;50.502;8.190;2024-01-30T00:21:41;21.33;;;12.65;;
66012;SDS011;52783;50.502;8.190;2024-01-30T00:24:06;23.55;;;12.40;;
66012;SDS011;52783;50.502;8.190;2024-01-30T00:26:32;28.67;;;11.85;;
66012;SDS011;52783;50.502;8.190;2024-01-30T00:28:58;21.50;;;12.60;;
66012;SDS011;52783;50.502;8.190;2024-01-30T00:31:23;24.15;;;11.50;;
66012;SDS011;52783;50.502;8.190;2024-01-30T00:33:49;22.05;;;11.88;;
66012;SDS011;52783;50.502;8.190;2024-01-30T00:36:15;19.63;;;12.57;;
66012;SDS011;52783;50.502;8.190;2024-01-30T00:38:40;19.77;;;12.25;;
66012;SDS011;52783;50.502;8.190;2024-01-30T00:41:07;22.27;;;12.00;;
66012;SDS011;52783;50.502;8.190;2024-01-30T00:43:33;22.30;;;12.05;;
66012;SDS011;52783;50.502;8.190;2024-01-30T00:45:59;18.17;;;12.20;;
66012;SDS011;52783;50.502;8.190;2024-01-30T00:48:24;24.75;;;11.27;;
66012;SDS011;52783;50.502;8.190;2024-01-30T00:50:50;19.38;;;12.13;;
66012;SDS011;52783;50.502;8.190;2024-01-30T00:53:15;26.15;;;12.80;;
66012;SDS011;52783;50.502;8.190;2024-01-30T00:55:41;18.65;;;11.70;;
66012;SDS011;52783;50.502;8.190;2024-01-30T00:58:06;20.42;;;12.20;;
66012;SDS011;52783;50.502;8.190;2024-01-30T01:00:32;22.77;;;11.68;;
66012;SDS011;52783;50.502;8.190;2024-01-30T01:02:58;22.05;;;11.73;;
66012;SDS011;52783;50.502;8.190;2024-01-30T01:05:24;23.08;;;13.77;;
66012;SDS011;52783;50.502;8.190;2024-01-30T01:07:50;26.95;;;12.05;;
66012;SDS011;52783;50.502;8.190;2024-01-30T01:10:18;18.92;;;10.98;;
66012;SDS011;52783;50.502;8.190;2024-01-30T01:12:44;16.90;;;9.82;;
66012;SDS011;52783;50.502;8.190;2024-01-30T01:15:10;20.73;;;10.95;;
66012;SDS011;52783;50.502;8.190;2024-01-30T01:17:36;25.52;;;11.98;;
66012;SDS011;52783;50.502;8.190;2024-01-30T01:20:05;29.30;;;14.88;;
66012;SDS011;52783;50.502;8.190;2024-01-30T01:22:32;25.05;;;15.15;;
66012;SDS011;52783;50.502;8.190;2024-01-30T01:24:58;22.15;;;14.85;;
66012;SDS011;52783;50.502;8.190;2024-01-30T01:27:24;21.30;;;12.52;;
66012;SDS011;52783;50.502;8.190;2024-01-30T01:29:50;20.50;;;13.48;;
66012;SDS011;52783;50.502;8.190;2024-01-30T01:32:16;27.77;;;15.13;;
66012;SDS011;52783;50.502;8.190;2024-01-30T01:34:42;25.80;;;13.95;;
66012;SDS011;52783;50.502;8.190;2024-01-30T01:37:07;22.42;;;13.25;;
66012;SDS011;52783;50.502;8.190;2024-01-30T01:39:33;26.08;;;13.50;;
66012;SDS011;52783;50.502;8.190;2024-01-30T01:41:58;20.65;;;12.00;;
66012;SDS011;52783;50.502;8.190;2024-01-30T01:44:24;19.20;;;12.10;;
66012;SDS011;52783;50.502;8.190;2024-01-30T01:46:49;20.45;;;11.95;;
66012;SDS011;52783;50.502;8.190;2024-01-30T01:49:17;21.15;;;10.30;;
66012;SDS011;52783;50.502;8.190;2024-01-30T01:51:44;18.15;;;11.45;;
66012;SDS011;52783;50.502;8.190;2024-01-30T01:54:12;20.13;;;11.57;;
66012;SDS011;52783;50.502;8.190;2024-01-30T01:56:39;18.17;;;11.43;;
66012;SDS011;52783;50.502;8.190;2024-01-30T01:59:06;22.70;;;12.93;;
66012;SDS011;52783;50.502;8.190;2024-01-30T02:01:33;30.60;;;12.55;;
66012;SDS011;52783;50.502;8.190;2024-01-30T02:03:59;20.95;;;12.80;;
66012;SDS011;52783;50.502;8.190;2024-01-30T02:06:26;24.42;;;14.32;;
66012;SDS011;52783;50.502;8.190;2024-01-30T02:08:51;28.20;;;13.63;;
66012;SDS011;52783;50.502;8.190;2024-01-30T02:11:17;21.63;;;12.27;;
66012;SDS011;52783;50.502;8.190;2024-01-30T02:13:44;21.85;;;11.80;;
66012;SDS011;52783;50.502;8.190;2024-01-30T02:16:10;17.88;;;11.23;;
66012;SDS011;52783;50.502;8.190;2024-01-30T02:18:35;18.15;;;11.30;;
66012;SDS011;52783;50.502;8.190;2024-01-30T02:21:06;22.27;;;12.18;;
66012;SDS011;52783;50.502;8.190;2024-01-30T02:23:32;21.85;;;12.52;;
66012;SDS011;52783;50.502;8.190;2024-01-30T02:25:59;18.35;;;12.98;;
66012;SDS011;52783;50.502;8.190;2024-01-30T02:28:25;21.92;;;13.70;;
66012;SDS011;52783;50.502;8.190;2024-01-30T02:30:51;23.00;;;14.00;;
66012;SDS011;52783;50.502;8.190;2024-01-30T02:33:16;20.63;;;12.32;;
66012;SDS011;52783;50.502;8.190;2024-01-30T02:35:42;20.08;;;13.02;;
66012;SDS011;52783;50.502;8.190;2024-01-30T02:38:07;24.13;;;12.30;;
66012;SDS011;52783;50.502;8.190;2024-01-30T02:40:33;28.67;;;14.70;;
66012;SDS011;52783;50.502;8.190;2024-01-30T02:42:59;23.30;;;13.27;;
66012;SDS011;52783;50.502;8.190;2024-01-30T02:45:27;26.25;;;12.45;;
66012;SDS011;52783;50.502;8.190;2024-01-30T02:47:53;21.63;;;12.20;;
66012;SDS011;52783;50.502;8.190;2024-01-30T02:50:18;17.65;;;11.25;;
66012;SDS011;52783;50.502;8.190;2024-01-30T02:52:44;21.50;;;12.52;;
66012;SDS011;52783;50.502;8.190;2024-01-30T02:55:10;28.48;;;13.23;;
66012;SDS011;52783;50.502;8.190;2024-01-30T02:57:36;19.85;;;12.88;;
66012;SDS011;52783;50.502;8.190;2024-01-30T03:00:01;19.80;;;13.35;;
66012;SDS011;52783;50.502;8.190;2024-01-30T03:02:28;22.02;;;12.48;;
66012;SDS011;52783;50.502;8.190;2024-01-30T03:04:54;23.33;;;12.27;;
66012;SDS011;52783;50.502;8.190;2024-01-30T03:07:19;24.20;;;12.75;;
66012;SDS011;52783;50.502;8.190;2024-01-30T03:09:45;19.80;;;12.68;;
66012;SDS011;52783;50.502;8.190;2024-01-30T03:12:11;22.70;;;11.73;;
66012;SDS011;52783;50.502;8.190;2024-01-30T03:14:36;23.27;;;12.95;;
66012;SDS011;52783;50.502;8.190;2024-01-30T03:17:02;19.73;;;11.65;;
66012;SDS011;52783;50.502;8.190;2024-01-30T03:19:28;21.95;;;11.63;;
66012;SDS011;52783;50.502;8.190;2024-01-30T03:21:53;20.58;;;11.52;;
66012;SDS011;52783;50.502;8.190;2024-01-30T03:24:19;17.95;;;10.77;;
66012;SDS011;52783;50.502;8.190;2024-01-30T03:26:44;18.05;;;11.32;;
66012;SDS011;52783;50.502;8.190;2024-01-30T03:29:10;23.08;;;11.07;;
66012;SDS011;52783;50.502;8.190;2024-01-30T03:31:35;16.23;;;9.55;;
66012;SDS011;52783;50.502;8.190;2024-01-30T03:34:01;25.00;;;11.48;;
66012;SDS011;52783;50.502;8.190;2024-01-30T03:36:27;18.30;;;11.65;;
66012;SDS011;52783;50.502;8.190;2024-01-30T03:38:53;25.30;;;11.60;;
66012;SDS011;52783;50.502;8.190;2024-01-30T03:41:18;18.13;;;11.38;;
66012;SDS011;52783;50.502;8.190;2024-01-30T03:43:44;19.70;;;11.55;;
66012;SDS011;52783;50.502;8.190;2024-01-30T03:46:11;19.08;;;11.82;;
66012;SDS011;52783;50.502;8.190;2024-01-30T03:48:37;18.67;;;12.32;;
66012;SDS011;52783;50.502;8.190;2024-01-30T03:51:03;21.85;;;13.75;;
66012;SDS011;52783;50.502;8.190;2024-01-30T03:53:29;28.17;;;12.57;;
66012;SDS011;52783;50.502;8.190;2024-01-30T03:55:55;25.10;;;13.43;;
66012;SDS011;52783;50.502;8.190;2024-01-30T03:58:20;19.80;;;12.73;;
66012;SDS011;52783;50.502;8.190;2024-01-30T04:00:46;23.95;;;13.43;;
66012;SDS011;52783;50.502;8.190;2024-01-30T04:03:11;23.27;;;12.98;;
66012;SDS011;52783;50.502;8.190;2024-01-30T04:05:37;23.38;;;13.10;;
66012;SDS011;52783;50.502;8.190;2024-01-30T04:08:02;27.13;;;13.95;;
66012;SDS011;52783;50.502;8.190;2024-01-30T04:10:28;25.85;;;13.88;;
66012;SDS011;52783;50.502;8.190;2024-01-30T04:12:53;26.45;;;13.07;;
66012;SDS011;52783;50.502;8.190;2024-01-30T04:15:19;26.25;;;12.30;;
66012;SDS011;52783;50.502;8.190;2024-01-30T04:17:45;22.30;;;12.32;;
66012;SDS011;52783;50.502;8.190;2024-01-30T04:20:16;22.10;;;11.73;;
66012;SDS011;52783;50.502;8.190;2024-01-30T04:22:45;25.15;;;11.82;;
66012;SDS011;52783;50.502;8.190;2024-01-30T04:25:12;18.90;;;11.38;;
66012;SDS011;52783;50.502;8.190;2024-01-30T04:27:38;22.38;;;11.82;;
66012;SDS011;52783;50.502;8.190;2024-01-30T04:30:04;17.63;;;11.40;;
66012;SDS011;52783;50.502;8.190;2024-01-30T04:32:30;24.00;;;13.52;;
66012;SDS011;52783;50.502;8.190;2024-01-30T04:34:55;26.55;;;12.60;;
66012;SDS011;52783;50.502;8.190;2024-01-30T04:37:21;22.05;;;12.32;;
66012;SDS011;52783;50.502;8.190;2024-01-30T04:39:46;24.20;;;13.20;;
66012;SDS011;52783;50.502;8.190;2024-01-30T04:42:12;21.70;;;12.93;;
66012;SDS011;52783;50.502;8.190;2024-01-30T04:44:38;26.75;;;12.90;;
66012;SDS011;52783;50.502;8.190;2024-01-30T04:47:03;23.67;;;12.95;;
66012;SDS011;52783;50.502;8.190;2024-01-30T04:49:31;23.75;;;12.98;;
66012;SDS011;52783;50.502;8.190;2024-01-30T04:51:56;20.77;;;11.55;;
66012;SDS011;52783;50.502;8.190;2024-01-30T04:54:22;23.30;;;12.40;;
66012;SDS011;52783;50.502;8.190;2024-01-30T04:56:48;22.75;;;13.15;;
66012;SDS011;52783;50.502;8.190;2024-01-30T04:59:13;22.08;;;13.32;;
66012;SDS011;52783;50.502;8.190;2024-01-30T05:01:39;26.15;;;12.10;;
66012;SDS011;52783;50.502;8.190;2024-01-30T05:04:07;20.40;;;12.27;;
66012;SDS011;52783;50.502;8.190;2024-01-30T05:06:32;21.70;;;12.23;;
66012;SDS011;52783;50.502;8.190;2024-01-30T05:08:58;25.20;;;13.32;;
66012;SDS011;52783;50.502;8.190;2024-01-30T05:11:23;21.42;;;12.18;;
66012;SDS011;52783;50.502;8.190;2024-01-30T05:13:49;19.77;;;12.68;;
66012;SDS011;52783;50.502;8.190;2024-01-30T05:16:14;25.48;;;13.20;;
66012;SDS011;52783;50.502;8.190;2024-01-30T05:18:40;23.40;;;13.27;;
66012;SDS011;52783;50.502;8.190;2024-01-30T05:21:06;26.90;;;12.48;;
66012;SDS011;52783;50.502;8.190;2024-01-30T05:23:31;27.17;;;13.68;;
66012;SDS011;52783;50.502;8.190;2024-01-30T05:25:57;20.85;;;12.60;;
66012;SDS011;52783;50.502;8.190;2024-01-30T05:28:22;23.60;;;13.40;;
66012;SDS011;52783;50.502;8.190;2024-01-30T05:30:48;34.60;;;15.77;;
66012;SDS011;52783;50.502;8.190;2024-01-30T05:33:13;49.30;;;21.33;;
66012;SDS011;52783;50.502;8.190;2024-01-30T05:35:39;39.88;;;20.35;;
66012;SDS011;52783;50.502;8.190;2024-01-30T05:38:04;49.15;;;22.02;;
66012;SDS011;52783;50.502;8.190;2024-01-30T05:40:30;41.83;;;22.25;;
66012;SDS011;52783;50.502;8.190;2024-01-30T05:42:56;41.22;;;20.73;;
66012;SDS011;52783;50.502;8.190;2024-01-30T05:45:25;64.40;;;29.73;;
66012;SDS011;52783;50.502;8.190;2024-01-30T05:47:52;48.58;;;26.20;;
66012;SDS011;52783;50.502;8.190;2024-01-30T05:50:17;38.28;;;23.90;;
66012;SDS011;52783;50.502;8.190;2024-01-30T05:52:43;33.42;;;19.05;;
66012;SDS011;52783;50.502;8.190;2024-01-30T05:55:08;27.42;;;15.30;;
66012;SDS011;52783;50.502;8.190;2024-01-30T05:57:34;27.85;;;15.35;;
66012;SDS011;52783;50.502;8.190;2024-01-30T06:00:00;33.55;;;16.45;;
66012;SDS011;52783;50.502;8.190;2024-01-30T06:02:25;29.75;;;15.90;;
66012;SDS011;52783;50.502;8.190;2024-01-30T06:04:51;21.90;;;13.15;;
66012;SDS011;52783;50.502;8.190;2024-01-30T06:07:16;29.38;;;17.05;;
66012;SDS011;52783;50.502;8.190;2024-01-30T06:09:42;30.58;;;15.95;;
66012;SDS011;52783;50.502;8.190;2024-01-30T06:12:08;32.88;;;16.30;;
66012;SDS011;52783;50.502;8.190;2024-01-30T06:14:34;32.83;;;17.85;;
66012;SDS011;52783;50.502;8.190;2024-01-30T06:16:59;25.40;;;14.32;;
66012;SDS011;52783;50.502;8.190;2024-01-30T06:19:25;27.50;;;15.68;;
66012;SDS011;52783;50.502;8.190;2024-01-30T06:21:50;32.00;;;17.08;;
66012;SDS011;52783;50.502;8.190;2024-01-30T06:24:16;25.92;;;15.15;;
66012;SDS011;52783;50.502;8.190;2024-01-30T06:26:42;26.38;;;15.63;;
66012;SDS011;52783;50.502;8.190;2024-01-30T06:29:07;27.50;;;14.13;;
66012;SDS011;52783;50.502;8.190;2024-01-30T06:31:33;30.40;;;14.80;;
66012;SDS011;52783;50.502;8.190;2024-01-30T06:34:05;24.63;;;15.30;;
66012;SDS011;52783;50.502;8.190;2024-01-30T06:36:30;30.13;;;16.77;;
66012;SDS011;52783;50.502;8.190;2024-01-30T06:38:56;41.72;;;17.70;;
66012;SDS011;52783;50.502;8.190;2024-01-30T06:41:21;29.52;;;16.98;;
66012;SDS011;52783;50.502;8.190;2024-01-30T06:43:47;32.90;;;14.90;;
66012;SDS011;52783;50.502;8.190;2024-01-30T06:46:13;31.58;;;15.68;;
66012;SDS011;52783;50.502;8.190;2024-01-30T06:48:38;27.42;;;14.77;;
66012;SDS011;52783;50.502;8.190;2024-01-30T06:51:05;33.40;;;13.68;;
66012;SDS011;52783;50.502;8.190;2024-01-30T06:53:31;26.33;;;15.45;;
66012;SDS011;52783;50.502;8.190;2024-01-30T06:55:57;24.98;;;13.82;;
66012;SDS011;52783;50.502;8.190;2024-01-30T06:58:22;24.30;;;14.02;;
66012;SDS011;52783;50.502;8.190;2024-01-30T07:00:48;22.83;;;14.15;;
66012;SDS011;52783;50.502;8.190;2024-01-30T07:03:13;25.98;;;15.00;;
66012;SDS011;52783;50.502;8.190;2024-01-30T07:05:39;26.08;;;15.65;;
66012;SDS011;52783;50.502;8.190;2024-01-30T07:08:04;36.63;;;15.60;;
66012;SDS011;52783;50.502;8.190;2024-01-30T07:10:30;31.02;;;17.30;;
66012;SDS011;52783;50.502;8.190;2024-01-30T07:12:56;30.55;;;16.52;;
66012;SDS011;52783;50.502;8.190;2024-01-30T07:15:22;25.00;;;16.25;;
66012;SDS011;52783;50.502;8.190;2024-01-30T07:17:47;23.73;;;14.20;;
66012;SDS011;52783;50.502;8.190;2024-01-30T07:20:13;20.77;;;12.90;;
66012;SDS011;52783;50.502;8.190;2024-01-30T07:22:39;25.48;;;15.32;;
66012;SDS011;52783;50.502;8.190;2024-01-30T07:25:05;24.40;;;14.68;;
66012;SDS011;52783;50.502;8.190;2024-01-30T07:27:31;21.50;;;13.52;;
66012;SDS011;52783;50.502;8.190;2024-01-30T07:29:56;19.85;;;13.38;;
66012;SDS011;52783;50.502;8.190;2024-01-30T07:32:22;24.00;;;14.68;;
66012;SDS011;52783;50.502;8.190;2024-01-30T07:34:48;21.67;;;13.75;;
66012;SDS011;52783;50.502;8.190;2024-01-30T07:37:14;26.67;;;13.98;;
66012;SDS011;52783;50.502;8.190;2024-01-30T07:39:41;25.65;;;13.07;;
66012;SDS011;52783;50.502;8.190;2024-01-30T07:42:07;30.17;;;13.48;;
66012;SDS011;52783;50.502;8.190;2024-01-30T07:44:33;21.13;;;12.82;;
66012;SDS011;52783;50.502;8.190;2024-01-30T07:46:59;22.92;;;13.98;;
66012;SDS011;52783;50.502;8.190;2024-01-30T07:49:24;21.23;;;12.80;;
66012;SDS011;52783;50.502;8.190;2024-01-30T07:51:50;27.08;;;13.10;;
66012;SDS011;52783;50.502;8.190;2024-01-30T07:54:16;24.13;;;13.93;;
66012;SDS011;52783;50.502;8.190;2024-01-30T07:56:41;25.35;;;13.20;;
66012;SDS011;52783;50.502;8.190;2024-01-30T07:59:10;24.10;;;13.80;;
66012;SDS011;52783;50.502;8.190;2024-01-30T08:01:36;25.38;;;14.30;;
66012;SDS011;52783;50.502;8.190;2024-01-30T08:04:02;24.95;;;14.52;;
66012;SDS011;52783;50.502;8.190;2024-01-30T08:06:28;20.15;;;14.63;;
66012;SDS011;52783;50.502;8.190;2024-01-30T08:08:53;26.63;;;14.23;;
66012;SDS011;52783;50.502;8.190;2024-01-30T08:11:22;24.98;;;14.80;;
66012;SDS011;52783;50.502;8.190;2024-01-30T08:13:51;24.95;;;13.75;;
66012;SDS011;52783;50.502;8.190;2024-01-30T08:16:17;25.90;;;14.98;;
66012;SDS011;52783;50.502;8.190;2024-01-30T08:18:43;28.73;;;14.13;;
66012;SDS011;52783;50.502;8.190;2024-01-30T08:21:08;25.67;;;14.70;;
66012;SDS011;52783;50.502;8.190;2024-01-30T08:23:34;28.05;;;14.98;;
66012;SDS011;52783;50.502;8.190;2024-01-30T08:25:59;22.52;;;14.10;;
66012;SDS011;52783;50.502;8.190;2024-01-30T08:28:25;24.33;;;14.20;;
66012;SDS011;52783;50.502;8.190;2024-01-30T08:30:51;29.77;;;15.63;;
66012;SDS011;52783;50.502;8.190;2024-01-30T08:33:17;27.25;;;15.80;;
66012;SDS011;52783;50.502;8.190;2024-01-30T08:35:42;23.58;;;14.23;;
66012;SDS011;52783;50.502;8.190;2024-01-30T08:38:08;21.65;;;13.07;;
66012;SDS011;52783;50.502;8.190;2024-01-30T08:40:33;24.60;;;13.25;;
66012;SDS011;52783;50.502;8.190;2024-01-30T08:42:59;26.33;;;15.00;;
66012;SDS011;52783;50.502;8.190;2024-01-30T08:45:25;43.58;;;22.08;;
66012;SDS011;52783;50.502;8.190;2024-01-30T08:47:50;47.42;;;23.20;;
66012;SDS011;52783;50.502;8.190;2024-01-30T08:50:16;43.10;;;24.00;;
66012;SDS011;52783;50.502;8.190;2024-01-30T08:52:41;38.97;;;20.27;;
66012;SDS011;52783;50.502;8.190;2024-01-30T08:55:08;28.30;;;14.52;;
66012;SDS011;52783;50.502;8.190;2024-01-30T08:57:34;22.98;;;13.07;;
66012;SDS011;52783;50.502;8.190;2024-01-30T09:00:00;23.30;;;12.88;;
66012;SDS011;52783;50.502;8.190;2024-01-30T09:02:27;21.40;;;13.88;;
66012;SDS011;52783;50.502;8.190;2024-01-30T09:04:52;22.52;;;12.63;;
66012;SDS011;52783;50.502;8.190;2024-01-30T09:07:18;21.27;;;13.48;;
66012;SDS011;52783;50.502;8.190;2024-01-30T09:09:43;22.05;;;13.73;;
66012;SDS011;52783;50.502;8.190;2024-01-30T09:12:10;72.32;;;36.10;;
66012;SDS011;52783;50.502;8.190;2024-01-30T09:14:37;24.88;;;14.75;;
66012;SDS011;52783;50.502;8.190;2024-01-30T09:17:02;28.83;;;15.73;;
66012;SDS011;52783;50.502;8.190;2024-01-30T09:19:28;22.70;;;13.95;;
66012;SDS011;52783;50.502;8.190;2024-01-30T09:21:54;27.70;;;14.80;;
66012;SDS011;52783;50.502;8.190;2024-01-30T09:24:20;30.55;;;19.67;;
66012;SDS011;52783;50.502;8.190;2024-01-30T09:26:46;34.13;;;18.55;;
66012;SDS011;52783;50.502;8.190;2024-01-30T09:29:11;29.75;;;18.23;;
66012;SDS011;52783;50.502;8.190;2024-01-30T09:31:37;22.73;;;13.65;;
66012;SDS011;52783;50.502;8.190;2024-01-30T09:34:02;26.92;;;13.55;;
66012;SDS011;52783;50.502;8.190;2024-01-30T09:36:28;22.92;;;14.05;;
66012;SDS011;52783;50.502;8.190;2024-01-30T09:38:53;18.80;;;13.13;;
66012;SDS011;52783;50.502;8.190;2024-01-30T09:41:19;18.80;;;12.15;;
66012;SDS011;52783;50.502;8.190;2024-01-30T09:43:47;18.58;;;11.48;;
66012;SDS011;52783;50.502;8.190;2024-01-30T09:46:14;21.35;;;11.82;;
66012;SDS011;52783;50.502;8.190;2024-01-30T09:48:41;21.77;;;11.18;;
66012;SDS011;52783;50.502;8.190;2024-01-30T09:51:08;22.02;;;10.82;;
66012;SDS011;52783;50.502;8.190;2024-01-30T09:53:34;17.42;;;11.20;;
66012;SDS011;52783;50.502;8.190;2024-01-30T09:56:02;19.00;;;12.52;;
66012;SDS011;52783;50.502;8.190;2024-01-30T09:58:27;16.42;;;11.68;;
66012;SDS011;52783;50.502;8.190;2024-01-30T10:00:53;17.95;;;11.55;;
66012;SDS011;52783;50.502;8.190;2024-01-30T10:03:19;16.27;;;12.05;;
66012;SDS011;52783;50.502;8.190;2024-01-30T10:05:47;19.65;;;11.65;;
66012;SDS011;52783;50.502;8.190;2024-01-30T10:08:17;21.65;;;14.30;;
66012;SDS011;52783;50.502;8.190;2024-01-30T10:10:46;24.75;;;13.35;;
66012;SDS011;52783;50.502;8.190;2024-01-30T10:13:13;24.25;;;12.95;;
66012;SDS011;52783;50.502;8.190;2024-01-30T10:15:38;20.10;;;12.70;;
66012;SDS011;52783;50.502;8.190;2024-01-30T10:18:05;18.48;;;11.65;;
66012;SDS011;52783;50.502;8.190;2024-01-30T10:20:31;20.23;;;11.43;;
66012;SDS011;52783;50.502;8.190;2024-01-30T10:22:57;19.50;;;11.50;;
66012;SDS011;52783;50.502;8.190;2024-01-30T10:25:23;16.95;;;11.98;;
66012;SDS011;52783;50.502;8.190;2024-01-30T10:27:54;18.10;;;11.40;;
66012;SDS011;52783;50.502;8.190;2024-01-30T10:30:23;18.00;;;11.00;;
66012;SDS011;52783;50.502;8.190;2024-01-30T10:32:49;20.13;;;12.32;;
66012;SDS011;52783;50.502;8.190;2024-01-30T10:35:16;25.67;;;13.23;;
66012;SDS011;52783;50.502;8.190;2024-01-30T10:37:44;23.23;;;14.32;;
66012;SDS011;52783;50.502;8.190;2024-01-30T10:40:13;28.67;;;16.85;;
66012;SDS011;52783;50.502;8.190;2024-01-30T10:42:40;26.23;;;15.25;;
66012;SDS011;52783;50.502;8.190;2024-01-30T10:45:09;24.33;;;14.50;;
66012;SDS011;52783;50.502;8.190;2024-01-30T10:47:44;23.75;;;13.65;;
66012;SDS011;52783;50.502;8.190;2024-01-30T10:50:14;27.27;;;13.70;;
66012;SDS011;52783;50.502;8.190;2024-01-30T10:52:40;15.85;;;10.07;;
66012;SDS011;52783;50.502;8.190;2024-01-30T10:55:09;20.75;;;10.75;;
66012;SDS011;52783;50.502;8.190;2024-01-30T10:57:35;14.35;;;9.50;;
66012;SDS011;52783;50.502;8.190;2024-01-30T11:00:02;17.27;;;10.00;;
66012;SDS011;52783;50.502;8.190;2024-01-30T11:02:30;17.67;;;9.52;;
66012;SDS011;52783;50.502;8.190;2024-01-30T11:04:57;19.33;;;9.27;;
66012;SDS011;52783;50.502;8.190;2024-01-30T11:07:25;19.75;;;9.77;;
66012;SDS011;52783;50.502;8.190;2024-01-30T11:12:26;17.15;;;9.63;;
66012;SDS011;52783;50.502;8.190;2024-01-30T11:15:12;14.75;;;8.85;;
66012;SDS011;52783;50.502;8.190;2024-01-30T11:20:20;18.42;;;9.15;;
66012;SDS011;52783;50.502;8.190;2024-01-30T11:22:48;16.17;;;9.55;;
66012;SDS011;52783;50.502;8.190;2024-01-30T11:25:16;17.88;;;10.13;;
66012;SDS011;52783;50.502;8.190;2024-01-30T11:27:43;15.60;;;9.82;;
66012;SDS011;52783;50.502;8.190;2024-01-30T11:30:10;18.27;;;9.77;;
66012;SDS011;52783;50.502;8.190;2024-01-30T11:32:36;18.85;;;9.13;;
66012;SDS011;52783;50.502;8.190;2024-01-30T11:35:05;15.25;;;9.52;;
66012;SDS011;52783;50.502;8.190;2024-01-30T11:37:36;12.27;;;8.75;;
66012;SDS011;52783;50.502;8.190;2024-01-30T11:40:03;16.20;;;9.02;;
66012;SDS011;52783;50.502;8.190;2024-01-30T11:42:29;19.73;;;9.55;;
66012;SDS011;52783;50.502;8.190;2024-01-30T11:44:55;15.10;;;9.07;;
66012;SDS011;52783;50.502;8.190;2024-01-30T11:47:22;14.57;;;9.10;;
66012;SDS011;52783;50.502;8.190;2024-01-30T11:49:47;16.45;;;9.68;;
66012;SDS011;52783;50.502;8.190;2024-01-30T11:52:13;14.00;;;9.25;;
66012;SDS011;52783;50.502;8.190;2024-01-30T11:54:39;14.63;;;8.88;;
66012;SDS011;52783;50.502;8.190;2024-01-30T11:57:05;20.63;;;9.07;;
66012;SDS011;52783;50.502;8.190;2024-01-30T11:59:30;13.50;;;8.15;;
66012;SDS011;52783;50.502;8.190;2024-01-30T12:01:56;14.07;;;8.75;;
66012;SDS011;52783;50.502;8.190;2024-01-30T12:04:21;14.35;;;8.30;;
66012;SDS011;52783;50.502;8.190;2024-01-30T12:06:50;14.93;;;8.35;;
66012;SDS011;52783;50.502;8.190;2024-01-30T12:09:16;12.75;;;8.13;;
66012;SDS011;52783;50.502;8.190;2024-01-30T12:14:11;14.32;;;8.10;;
66012;SDS011;52783;50.502;8.190;2024-01-30T12:16:37;12.75;;;7.80;;
66012;SDS011;52783;50.502;8.190;2024-01-30T12:19:03;15.70;;;8.43;;
66012;SDS011;52783;50.502;8.190;2024-01-30T12:21:29;14.32;;;8.05;;
66012;SDS011;52783;50.502;8.190;2024-01-30T12:23:55;14.07;;;8.05;;
66012;SDS011;52783;50.502;8.190;2024-01-30T12:26:25;12.77;;;7.53;;
66012;SDS011;52783;50.502;8.190;2024-01-30T12:28:50;12.30;;;7.78;;
66012;SDS011;52783;50.502;8.190;2024-01-30T12:31:24;16.83;;;8.73;;
66012;SDS011;52783;50.502;8.190;2024-01-30T12:33:51;12.07;;;8.32;;
66012;SDS011;52783;50.502;8.190;2024-01-30T12:36:17;19.13;;;9.07;;
66012;SDS011;52783;50.502;8.190;2024-01-30T12:38:43;11.90;;;8.43;;
66012;SDS011;52783;50.502;8.190;2024-01-30T12:41:08;14.60;;;8.18;;
66012;SDS011;52783;50.502;8.190;2024-01-30T12:43:35;15.00;;;8.20;;
66012;SDS011;52783;50.502;8.190;2024-01-30T12:46:01;13.18;;;8.38;;
66012;SDS011;52783;50.502;8.190;2024-01-30T12:48:27;19.10;;;8.35;;
66012;SDS011;52783;50.502;8.190;2024-01-30T12:50:54;16.83;;;9.10;;
66012;SDS011;52783;50.502;8.190;2024-01-30T12:53:20;13.00;;;8.38;;
66012;SDS011;52783;50.502;8.190;2024-01-30T12:55:46;15.15;;;8.43;;
66012;SDS011;52783;50.502;8.190;2024-01-30T12:58:12;16.10;;;8.40;;
66012;SDS011;52783;50.502;8.190;2024-01-30T13:00:37;12.38;;;8.32;;
66012;SDS011;52783;50.502;8.190;2024-01-30T13:03:03;13.13;;;8.93;;
66012;SDS011;52783;50.502;8.190;2024-01-30T13:05:29;22.50;;;9.23;;
66012;SDS011;52783;50.502;8.190;2024-01-30T13:07:54;17.27;;;9.10;;
66012;SDS011;52783;50.502;8.190;2024-01-30T13:10:22;14.00;;;8.32;;
66012;SDS011;52783;50.502;8.190;2024-01-30T13:12:47;16.17;;;9.20;;
66012;SDS011;52783;50.502;8.190;2024-01-30T13:15:13;15.10;;;8.50;;
66012;SDS011;52783;50.502;8.190;2024-01-30T13:17:39;13.60;;;7.97;;
66012;SDS011;52783;50.502;8.190;2024-01-30T13:20:04;14.15;;;8.48;;
66012;SDS011;52783;50.502;8.190;2024-01-30T13:22:33;14.98;;;8.77;;
66012;SDS011;52783;50.502;8.190;2024-01-30T13:24:58;15.13;;;8.88;;
66012;SDS011;52783;50.502;8.190;2024-01-30T13:27:24;16.30;;;8.45;;
66012;SDS011;52783;50.502;8.190;2024-01-30T13:29:50;17.30;;;8.65;;
66012;SDS011;52783;50.502;8.190;2024-01-30T13:32:15;15.68;;;8.77;;
66012;SDS011;52783;50.502;8.190;2024-01-30T13:34:41;14.15;;;8.50;;
66012;SDS011;52783;50.502;8.190;2024-01-30T13:37:07;15.55;;;8.73;;
66012;SDS011;52783;50.502;8.190;2024-01-30T13:39:33;11.85;;;7.80;;
66012;SDS011;52783;50.502;8.190;2024-01-30T13:41:59;13.40;;;8.13;;
66012;SDS011;52783;50.502;8.190;2024-01-30T13:44:24;11.90;;;8.15;;
66012;SDS011;52783;50.502;8.190;2024-01-30T13:46:50;17.67;;;8.63;;
66012;SDS011;52783;50.502;8.190;2024-01-30T13:49:15;15.52;;;8.45;;
66012;SDS011;52783;50.502;8.190;2024-01-30T13:51:41;17.58;;;9.43;;
66012;SDS011;52783;50.502;8.190;2024-01-30T13:54:07;17.05;;;8.45;;
66012;SDS011;52783;50.502;8.190;2024-01-30T13:56:33;12.65;;;8.13;;
66012;SDS011;52783;50.502;8.190;2024-01-30T13:58:59;14.90;;;8.68;;
66012;SDS011;52783;50.502;8.190;2024-01-30T14:01:26;17.15;;;9.80;;
66012;SDS011;52783;50.502;8.190;2024-01-30T14:03:51;14.63;;;9.18;;
66012;SDS011;52783;50.502;8.190;2024-01-30T14:06:17;15.68;;;9.20;;
66012;SDS011;52783;50.502;8.190;2024-01-30T14:08:43;17.80;;;8.95;;
66012;SDS011;52783;50.502;8.190;2024-01-30T14:11:08;16.55;;;9.00;;
66012;SDS011;52783;50.502;8.190;2024-01-30T14:13:34;14.77;;;8.40;;
66012;SDS011;52783;50.502;8.190;2024-01-30T14:16:00;15.63;;;8.65;;
66012;SDS011;52783;50.502;8.190;2024-01-30T14:18:26;20.15;;;9.25;;
66012;SDS011;52783;50.502;8.190;2024-01-30T14:20:51;17.90;;;9.02;;
66012;SDS011;52783;50.502;8.190;2024-01-30T14:23:17;18.52;;;9.48;;
66012;SDS011;52783;50.502;8.190;2024-01-30T14:25:43;16.15;;;8.88;;